Time;durP1;ratioP1;P1;durP2;ratioP2;P2;SDS_P1;SDS_P2;PMS_P1;PMS_P2;Temp;Humidity;BMP_temperature;BMP_pressure;BME280_temperature;BME280_humidity;BME280_pressure;Samples;Min_cycle;Max_cycle;Signal;HPM_P1;HPM_P2
2022/12/08 00:00:09;;;;;;;0.60;0.60;;;1.70;99.90;;;;;;4426426;32;21251;-78
2022/12/08 00:02:34;;;;;;;0.40;0.40;;;1.80;99.90;;;;;;4427831;32;20077;-79
2022/12/08 00:09:45;;;;;;;0.47;0.47;;;1.70;99.90;;;;;;4415314;32;20090;-77
2022/12/08 00:10:30;;;;;;;2.55;1.40;;;1.60;99.90;;;;;;4426251;32;20529;-77
2022/12/08 00:12:56;;;;;;;6.62;1.35;;;1.80;99.90;;;;;;4428455;32;20073;-77
2022/12/08 00:15:21;;;;;;;0.50;0.50;;;1.80;99.90;;;;;;4426831;32;20544;-77
2022/12/08 00:17:47;;;;;;;0.40;0.40;;;1.80;99.90;;;;;;4427201;32;20104;-77
2022/12/08 00:20:12;;;;;;;0.40;0.40;;;1.80;99.90;;;;;;4424911;32;20077;-77
2022/12/08 00:22:38;;;;;;;0.50;0.50;;;1.80;99.90;;;;;;4426093;32;20078;-76
2022/12/08 00:25:03;;;;;;;11.52;3.37;;;1.80;99.90;;;;;;4429124;32;20105;-76
2022/12/08 00:27:29;;;;;;;1.85;1.35;;;1.80;99.90;;;;;;4428340;32;20093;-76
2022/12/08 00:29:54;;;;;;;0.70;0.70;;;1.80;99.90;;;;;;4423406;32;20599;-78
2022/12/08 00:32:20;;;;;;;0.68;0.68;;;1.70;99.90;;;;;;4425774;32;20104;-77
2022/12/08 00:34:45;;;;;;;1.85;0.75;;;1.70;99.90;;;;;;4409144;32;20147;-77
2022/12/08 00:37:11;;;;;;;7.25;1.48;;;1.80;99.90;;;;;;4416163;32;20081;-77
2022/12/08 00:39:36;;;;;;;0.50;0.50;;;1.80;99.90;;;;;;4425905;32;20089;-77
2022/12/08 00:42:17;;;;;;;0.60;0.60;;;1.80;99.90;;;;;;4429081;32;20096;-78
2022/12/08 00:44:44;;;;;;;0.47;0.47;;;1.80;99.90;;;;;;4427252;32;20089;-76
2022/12/08 00:47:11;;;;;;;0.60;0.60;;;1.70;99.90;;;;;;4425329;32;20097;-77
2022/12/08 00:49:36;;;;;;;1.23;0.95;;;1.70;99.90;;;;;;4427543;32;20072;-77
2022/12/08 00:52:02;;;;;;;1.65;0.82;;;1.60;99.90;;;;;;4428618;32;20086;-76
2022/12/08 00:54:27;;;;;;;0.40;0.40;;;1.80;99.90;;;;;;4426407;32;20069;-77
2022/12/08 00:56:53;;;;;;;0.45;0.45;;;1.70;99.90;;;;;;4426649;32;20082;-77
2022/12/08 00:59:18;;;;;;;0.30;0.30;;;1.70;99.90;;;;;;4426519;32;20110;-77
2022/12/08 01:01:45;;;;;;;0.50;0.50;;;1.70;99.90;;;;;;4432732;32;20080;-77
2022/12/08 01:04:14;;;;;;;0.40;0.40;;;1.60;99.90;;;;;;4414946;32;20101;-78
2022/12/08 01:06:40;;;;;;;1.40;0.82;;;1.60;99.90;;;;;;4412444;32;20121;-76
2022/12/08 01:09:07;;;;;;;0.62;0.62;;;1.70;99.90;;;;;;4426325;32;20097;-76
2022/12/08 01:11:34;;;;;;;0.50;0.50;;;1.70;99.90;;;;;;4430607;32;20081;-76
2022/12/08 01:13:59;;;;;;;0.50;0.50;;;1.70;99.90;;;;;;4427821;32;20104;-76
2022/12/08 01:16:29;;;;;;;0.62;0.62;;;1.70;99.90;;;;;;4425501;32;20086;-76
2022/12/08 01:18:56;;;;;;;0.40;0.40;;;1.70;99.90;;;;;;4429824;32;20085;-76
2022/12/08 01:21:22;;;;;;;1.48;1.25;;;1.70;99.90;;;;;;4430251;32;20077;-76
2022/12/08 01:23:48;;;;;;;0.40;0.40;;;1.70;99.90;;;;;;4428907;32;20156;-76
2022/12/08 01:26:16;;;;;;;0.45;0.45;;;1.70;99.90;;;;;;4432657;32;20626;-77
2022/12/08 01:28:42;;;;;;;1.27;0.80;;;1.70;99.90;;;;;;4430631;32;20085;-77
2022/12/08 01:31:13;;;;;;;0.62;0.62;;;1.70;99.90;;;;;;4428168;32;20082;-76
2022/12/08 01:33:39;;;;;;;0.43;0.43;;;1.80;99.90;;;;;;4421511;32;21487;-77
2022/12/08 01:36:05;;;;;;;0.68;0.68;;;1.90;99.90;;;;;;4410329;32;20094;-76
2022/12/08 01:38:31;;;;;;;0.50;0.50;;;1.70;99.90;;;;;;4423350;32;20104;-75
2022/12/08 01:40:57;;;;;;;0.50;0.50;;;1.60;99.90;;;;;;4428320;32;20446;-75
2022/12/08 01:43:22;;;;;;;0.57;0.57;;;1.60;99.90;;;;;;4430715;32;20068;-75
2022/12/08 01:45:48;;;;;;;0.40;0.40;;;1.60;99.90;;;;;;4429819;32;20085;-76
2022/12/08 01:48:19;;;;;;;0.55;0.55;;;1.70;99.90;;;;;;4429177;32;20073;-76
2022/12/08 01:50:46;;;;;;;1.25;1.00;;;1.70;99.90;;;;;;4427194;32;20607;-75
2022/12/08 01:53:21;;;;;;;3.85;1.55;;;1.80;99.90;;;;;;4432951;32;20596;-75
2022/12/08 01:55:53;;;;;;;0.40;0.40;;;1.80;99.90;;;;;;4429026;32;20101;-76
2022/12/08 01:58:25;;;;;;;0.50;0.50;;;1.70;99.90;;;;;;4427988;32;20135;-76
2022/12/08 02:00:51;;;;;;;0.40;0.40;;;1.70;99.90;;;;;;4428570;32;20069;-75
2022/12/08 02:03:25;;;;;;;0.40;0.40;;;1.60;99.90;;;;;;4424675;32;20823;-77
2022/12/08 02:05:51;;;;;;;0.50;0.50;;;1.60;99.90;;;;;;4410152;32;20116;-76
2022/12/08 02:08:17;;;;;;;0.50;0.50;;;1.70;99.90;;;;;;4425527;32;20102;-76
2022/12/08 02:10:43;;;;;;;1.70;1.25;;;1.70;99.90;;;;;;4428971;32;20061;-75
2022/12/08 02:13:13;;;;;;;0.40;0.40;;;1.80;99.90;;;;;;4429275;32;20081;-76
2022/12/08 02:16:05;;;;;;;0.52;0.52;;;1.80;99.90;;;;;;4426205;32;20435;-76
2022/12/08 02:18:58;;;;;;;0.40;0.40;;;1.70;99.90;;;;;;4426522;32;20435;-75
2022/12/08 02:21:39;;;;;;;0.60;0.60;;;1.70;99.90;;;;;;4427951;32;20069;-75
2022/12/08 02:24:12;;;;;;;0.30;0.30;;;1.70;99.90;;;;;;4429999;32;20135;-75
2022/12/08 02:26:49;;;;;;;0.50;0.50;;;1.70;99.90;;;;;;4429514;32;20108;-75
2022/12/08 02:29:43;;;;;;;0.40;0.40;;;1.80;99.90;;;;;;4425897;32;20113;-76
2022/12/08 02:32:25;;;;;;;0.40;0.40;;;1.80;99.90;;;;;;4428696;32;20104;-77
2022/12/08 02:34:57;;;;;;;0.45;0.45;;;1.80;99.90;;;;;;4410007;32;20069;-76
2022/12/08 02:37:30;;;;;;;0.40;0.40;;;1.80;99.90;;;;;;4416117;32;20089;-75
2022/12/08 02:40:01;;;;;;;0.40;0.40;;;1.80;99.90;;;;;;4428463;32;20159;-75
2022/12/08 02:42:36;;;;;;;0.40;0.40;;;1.90;99.90;;;;;;4427719;32;20101;-76
2022/12/08 02:45:11;;;;;;;0.50;0.50;;;1.90;99.90;;;;;;4426814;32;20088;-76
2022/12/08 02:47:37;;;;;;;0.40;0.40;;;1.90;99.90;;;;;;4426080;32;20418;-76
2022/12/08 02:50:03;;;;;;;0.40;0.40;;;1.90;99.90;;;;;;4427672;32;20082;-77
2022/12/08 02:52:31;;;;;;;0.45;0.45;;;1.90;99.90;;;;;;4427006;32;20102;-75
2022/12/08 02:55:01;;;;;;;0.40;0.40;;;1.90;99.90;;;;;;4427451;32;20097;-77
2022/12/08 02:57:50;;;;;;;2.17;1.30;;;1.90;99.90;;;;;;4427108;32;20149;-77
2022/12/08 03:00:19;;;;;;;0.50;0.50;;;1.90;99.90;;;;;;4430413;32;20089;-75
2022/12/08 03:03:12;;;;;;;0.50;0.50;;;1.90;99.90;;;;;;4423191;32;20097;-76
2022/12/08 03:06:12;;;;;;;0.40;0.40;;;1.80;99.90;;;;;;4408740;32;20600;-76
2022/12/08 03:08:50;;;;;;;0.40;0.40;;;1.80;99.90;;;;;;4426008;32;20165;-75
2022/12/08 03:11:21;;;;;;;0.50;0.50;;;2.00;99.90;;;;;;4425884;32;20687;-75
2022/12/08 03:13:51;;;;;;;0.50;0.50;;;1.80;99.90;;;;;;4428452;32;20077;-76
2022/12/08 03:16:23;;;;;;;0.40;0.40;;;1.70;99.90;;;;;;4429010;32;20066;-75
2022/12/08 03:18:55;;;;;;;0.40;0.40;;;1.70;99.90;;;;;;4430074;32;20097;-75
2022/12/08 03:21:21;;;;;;;0.40;0.40;;;1.70;99.90;;;;;;4427427;32;20130;-75
2022/12/08 03:23:51;;;;;;;0.50;0.50;;;1.70;99.90;;;;;;4427266;32;20076;-76
2022/12/08 03:26:24;;;;;;;0.40;0.40;;;1.60;99.90;;;;;;4429906;32;20065;-76
2022/12/08 03:28:49;;;;;;;0.40;0.40;;;1.60;99.90;;;;;;4426823;32;21288;-76
2022/12/08 03:31:18;;;;;;;0.60;0.60;;;1.80;99.90;;;;;;4425561;32;20129;-75
2022/12/08 03:33:50;;;;;;;2.72;0.90;;;1.70;99.90;;;;;;4418275;32;20255;-76
2022/12/08 03:36:16;;;;;;;0.40;0.40;;;1.80;99.90;;;;;;4408338;32;20106;-77
2022/12/08 03:38:44;;;;;;;0.60;0.60;;;1.90;99.90;;;;;;4423575;32;20077;-76
2022/12/08 03:41:18;;;;;;;0.40;0.40;;;1.90;99.90;;;;;;4428798;32;20153;-75
2022/12/08 03:43:46;;;;;;;0.85;0.85;;;1.80;99.90;;;;;;4427493;32;20093;-75
2022/12/08 03:46:12;;;;;;;0.57;0.57;;;1.80;99.90;;;;;;4425866;32;20441;-76
2022/12/08 03:48:38;;;;;;;0.50;0.50;;;1.80;99.90;;;;;;4426617;32;20108;-75
2022/12/08 03:51:03;;;;;;;0.37;0.37;;;1.80;99.90;;;;;;4428129;32;20116;-76
2022/12/08 03:53:30;;;;;;;0.77;0.77;;;1.90;99.90;;;;;;4428521;32;20078;-75
2022/12/08 03:55:55;;;;;;;4.07;1.10;;;1.90;99.90;;;;;;4427760;32;20103;-75
2022/12/08 03:58:21;;;;;;;0.62;0.62;;;1.90;99.90;;;;;;4430043;32;20093;-76
2022/12/08 04:00:46;;;;;;;0.47;0.47;;;1.90;99.90;;;;;;4427635;32;20123;-76
2022/12/08 04:03:12;;;;;;;0.60;0.60;;;1.90;99.90;;;;;;4422573;32;20813;-76
2022/12/08 04:05:37;;;;;;;0.40;0.40;;;1.90;99.90;;;;;;4408769;32;20585;-76
2022/12/08 04:08:03;;;;;;;0.50;0.50;;;1.90;99.90;;;;;;4420044;32;20072;-75
2022/12/08 04:10:28;;;;;;;0.52;0.52;;;2.00;99.90;;;;;;4425668;32;20197;-76
2022/12/08 04:12:55;;;;;;;1.90;0.82;;;2.00;99.90;;;;;;4429796;32;20089;-75
2022/12/08 04:15:21;;;;;;;0.32;0.32;;;2.00;99.90;;;;;;4430543;32;20061;-75
2022/12/08 04:17:46;;;;;;;0.45;0.45;;;2.10;99.90;;;;;;4428179;32;20548;-76
2022/12/08 04:20:12;;;;;;;0.35;0.35;;;2.10;99.90;;;;;;4429567;32;20066;-76
2022/12/08 04:22:37;;;;;;;0.98;0.98;;;2.00;99.90;;;;;;4426957;32;20120;-76
2022/12/08 04:25:03;;;;;;;0.40;0.40;;;2.00;99.90;;;;;;4427450;32;20094;-77
2022/12/08 04:27:29;;;;;;;0.35;0.35;;;2.00;99.90;;;;;;4428491;32;20069;-76
2022/12/08 04:29:55;;;;;;;0.55;0.55;;;2.00;99.90;;;;;;4428844;32;20235;-76
2022/12/08 04:32:20;;;;;;;0.50;0.50;;;2.00;99.90;;;;;;4429176;32;20380;-79
2022/12/08 04:34:46;;;;;;;0.60;0.60;;;2.00;99.90;;;;;;4410345;32;20090;-77
2022/12/08 04:37:11;;;;;;;0.40;0.40;;;2.00;99.90;;;;;;4417092;32;20089;-76
2022/12/08 04:39:37;;;;;;;0.40;0.40;;;2.00;99.90;;;;;;4430834;32;20076;-76
2022/12/08 04:42:02;;;;;;;2.17;1.10;;;2.00;99.90;;;;;;4428243;32;20200;-77
2022/12/08 04:44:28;;;;;;;0.40;0.40;;;2.00;99.90;;;;;;4428297;32;20438;-76
2022/12/08 04:46:53;;;;;;;0.60;0.60;;;2.00;99.90;;;;;;4429511;32;20090;-76
2022/12/08 04:49:19;;;;;;;0.50;0.50;;;2.10;99.90;;;;;;4429534;32;20580;-77
2022/12/08 04:51:44;;;;;;;0.40;0.40;;;2.10;99.90;;;;;;4430328;32;20057;-76
2022/12/08 04:54:09;;;;;;;0.55;0.55;;;2.10;99.90;;;;;;4429841;32;20201;-76
2022/12/08 04:56:35;;;;;;;0.47;0.47;;;2.10;99.90;;;;;;4432493;32;20108;-76
2022/12/08 04:59:01;;;;;;;0.50;0.45;;;2.10;99.90;;;;;;4430380;32;20074;-76
2022/12/08 05:01:27;;;;;;;0.40;0.40;;;2.10;99.90;;;;;;4431815;32;20469;-76
2022/12/08 05:03:52;;;;;;;0.60;0.60;;;2.20;99.90;;;;;;4420161;32;20073;-77
2022/12/08 05:06:18;;;;;;;0.40;0.40;;;2.20;99.90;;;;;;4411194;32;20955;-76
2022/12/08 05:08:43;;;;;;;0.45;0.45;;;2.20;99.90;;;;;;4428310;32;21172;-76
2022/12/08 05:11:10;;;;;;;0.93;0.93;;;2.20;99.90;;;;;;4431775;32;20073;-77
2022/12/08 05:13:36;;;;;;;0.32;0.32;;;2.20;99.90;;;;;;4428094;32;20089;-76
2022/12/08 05:16:07;;;;;;;1.45;0.75;;;2.20;99.90;;;;;;4429237;32;20169;-76
2022/12/08 05:18:34;;;;;;;0.60;0.60;;;2.20;99.90;;;;;;4430379;32;20060;-76
2022/12/08 05:20:59;;;;;;;0.40;0.40;;;2.20;99.90;;;;;;4425003;32;20518;-78
2022/12/08 05:23:25;;;;;;;0.50;0.50;;;2.10;99.90;;;;;;4392133;32;20231;-78
2022/12/08 05:25:51;;;;;;;0.45;0.45;;;2.20;99.90;;;;;;4396390;32;20710;-78
2022/12/08 05:28:16;;;;;;;0.60;0.60;;;2.30;99.90;;;;;;4388248;32;20259;-79
2022/12/08 05:30:42;;;;;;;1.25;1.02;;;2.30;99.90;;;;;;4394727;32;20105;-78
2022/12/08 05:33:07;;;;;;;0.50;0.50;;;2.40;99.90;;;;;;4388622;32;20363;-78
2022/12/08 05:35:33;;;;;;;0.73;0.73;;;2.30;99.90;;;;;;4383523;32;20219;-78
2022/12/08 05:37:58;;;;;;;1.02;0.98;;;2.30;99.90;;;;;;4409264;32;20114;-76
2022/12/08 05:40:23;;;;;;;0.90;0.90;;;2.30;99.90;;;;;;4430942;32;20065;-76
2022/12/08 05:42:49;;;;;;;0.40;0.40;;;2.40;99.90;;;;;;4429593;32;20501;-76
2022/12/08 05:45:14;;;;;;;0.73;0.73;;;2.40;99.90;;;;;;4429114;32;20303;-76
2022/12/08 05:47:40;;;;;;;0.82;0.82;;;2.40;99.90;;;;;;4428182;32;20150;-77
2022/12/08 05:50:06;;;;;;;1.42;0.85;;;2.40;99.90;;;;;;4427077;32;20682;-77
2022/12/08 05:52:32;;;;;;;0.50;0.50;;;2.40;99.90;;;;;;4413498;32;20113;-78
2022/12/08 05:54:57;;;;;;;0.40;0.40;;;2.40;99.90;;;;;;4388099;32;20175;-78
2022/12/08 05:57:23;;;;;;;1.85;1.30;;;2.40;99.90;;;;;;4407249;32;20136;-77
2022/12/08 05:59:48;;;;;;;0.43;0.43;;;2.40;99.90;;;;;;4425243;32;20596;-77
2022/12/08 06:02:14;;;;;;;0.60;0.60;;;2.40;99.90;;;;;;4417276;32;20065;-77
2022/12/08 06:04:39;;;;;;;0.65;0.65;;;2.40;99.90;;;;;;4381474;32;20396;-78
2022/12/08 06:07:05;;;;;;;0.40;0.40;;;2.50;99.90;;;;;;4387631;32;20230;-79
2022/12/08 06:09:30;;;;;;;0.50;0.50;;;2.50;99.90;;;;;;4384279;32;20065;-78
2022/12/08 06:11:56;;;;;;;0.85;0.85;;;2.50;99.90;;;;;;4391686;32;20424;-78
2022/12/08 06:14:21;;;;;;;0.50;0.50;;;2.50;99.90;;;;;;4376210;32;20134;-78
2022/12/08 06:16:47;;;;;;;1.00;0.82;;;2.50;99.90;;;;;;4384263;32;20490;-78
2022/12/08 06:19:13;;;;;;;0.47;0.47;;;2.50;99.90;;;;;;4339236;32;20558;-79
2022/12/08 06:21:38;;;;;;;0.65;0.65;;;2.50;99.90;;;;;;4346820;32;20249;-78
2022/12/08 06:24:04;;;;;;;0.82;0.82;;;2.50;99.90;;;;;;4324231;32;20218;-78
2022/12/08 06:26:29;;;;;;;0.77;0.77;;;2.40;99.90;;;;;;4331056;32;20488;-78
2022/12/08 06:28:55;;;;;;;0.40;0.40;;;2.40;99.90;;;;;;4344844;32;20745;-80
2022/12/08 06:31:23;;;;;;;0.40;0.40;;;2.40;99.90;;;;;;4307879;32;20433;-79
2022/12/08 06:33:50;;;;;;;0.80;0.70;;;2.40;99.90;;;;;;4341595;32;20255;-79
2022/12/08 06:36:20;;;;;;;0.40;0.40;;;2.50;99.90;;;;;;4350741;32;21054;-78
2022/12/08 06:38:46;;;;;;;3.00;1.77;;;2.40;99.90;;;;;;4359152;32;20419;-78
2022/12/08 06:41:14;;;;;;;0.47;0.47;;;2.50;99.90;;;;;;4358742;32;20321;-77
2022/12/08 06:43:41;;;;;;;1.10;0.70;;;2.50;99.90;;;;;;4366191;32;20386;-78
2022/12/08 06:46:09;;;;;;;0.40;0.40;;;2.50;99.90;;;;;;4379336;32;20219;-79
2022/12/08 06:48:35;;;;;;;0.40;0.40;;;2.50;99.90;;;;;;4379492;32;20217;-78
2022/12/08 06:51:10;;;;;;;0.70;0.70;;;2.60;99.90;;;;;;4385665;32;20133;-78
2022/12/08 06:53:37;;;;;;;0.30;0.30;;;2.50;99.90;;;;;;4372609;32;20097;-85
2022/12/08 06:56:02;;;;;;;0.40;0.40;;;2.50;99.90;;;;;;4396736;32;20194;-77
2022/12/08 06:58:28;;;;;;;0.70;0.70;;;2.50;99.90;;;;;;4387153;32;20151;-79
2022/12/08 07:00:54;;;;;;;0.50;0.50;;;2.50;99.90;;;;;;4375635;32;20242;-81
2022/12/08 07:03:19;;;;;;;0.47;0.47;;;2.60;99.90;;;;;;4355245;26;20171;-61
2022/12/08 07:05:45;;;;;;;2.92;2.15;;;2.60;99.90;;;;;;4336899;32;20215;-61
2022/12/08 07:08:10;;;;;;;1.45;0.80;;;2.60;99.90;;;;;;4354589;32;20078;-64
2022/12/08 07:10:36;;;;;;;0.68;0.68;;;2.60;99.90;;;;;;4363388;32;20081;-63
2022/12/08 07:13:02;;;;;;;0.40;0.40;;;2.70;99.90;;;;;;4365428;32;20128;-64
2022/12/08 07:15:28;;;;;;;0.47;0.47;;;2.70;99.90;;;;;;4367039;32;20148;-63
2022/12/08 07:17:54;;;;;;;2.60;1.58;;;2.70;99.90;;;;;;4352813;32;20347;-62
2022/12/08 07:20:19;;;;;;;3.35;1.25;;;2.70;99.90;;;;;;4342756;32;21259;-64
2022/12/08 07:22:49;;;;;;;0.40;0.40;;;2.70;99.90;;;;;;4347852;32;20097;-62
2022/12/08 07:25:15;;;;;;;0.53;0.53;;;2.70;99.90;;;;;;4354584;32;21239;-63
2022/12/08 07:27:40;;;;;;;0.70;0.70;;;2.70;99.90;;;;;;4370576;32;20186;-63
2022/12/08 07:30:07;;;;;;;0.62;0.62;;;2.70;99.90;;;;;;4352586;32;20262;-64
2022/12/08 07:32:33;;;;;;;0.30;0.30;;;2.70;99.90;;;;;;4335516;32;112120;-62
2022/12/08 07:34:59;;;;;;;0.70;0.65;;;2.70;99.90;;;;;;4341468;32;20500;-61
2022/12/08 07:37:25;;;;;;;1.55;1.00;;;2.70;99.90;;;;;;4352605;32;20435;-63
2022/12/08 07:39:50;;;;;;;0.60;0.60;;;2.80;99.90;;;;;;4354384;32;20118;-61
2022/12/08 07:42:16;;;;;;;0.73;0.73;;;2.80;99.90;;;;;;4361134;32;20126;-61
2022/12/08 07:44:41;;;;;;;0.40;0.40;;;2.70;99.90;;;;;;4373893;32;20259;-64
2022/12/08 07:47:06;;;;;;;0.60;0.60;;;2.70;99.90;;;;;;4381140;32;20813;-64
2022/12/08 07:49:32;;;;;;;2.85;0.98;;;2.70;99.90;;;;;;4361836;32;21086;-59
2022/12/08 07:51:57;;;;;;;0.70;0.70;;;2.70;99.90;;;;;;4360334;32;20470;-62
2022/12/08 07:54:23;;;;;;;0.47;0.47;;;2.70;99.90;;;;;;4377146;32;20787;-64
2022/12/08 07:56:48;;;;;;;0.50;0.50;;;2.70;99.90;;;;;;4375192;32;20304;-63
2022/12/08 07:59:14;;;;;;;0.45;0.45;;;2.70;99.90;;;;;;4377663;32;20328;-61
2022/12/08 08:01:39;;;;;;;0.47;0.47;;;2.60;99.90;;;;;;4359488;32;20343;-63
2022/12/08 08:04:05;;;;;;;8.57;2.40;;;2.70;99.90;;;;;;4351409;32;20129;-62
2022/12/08 08:06:32;;;;;;;1.10;1.05;;;2.80;99.90;;;;;;4363342;32;20362;-63
2022/12/08 08:08:58;;;;;;;0.60;0.60;;;2.70;99.90;;;;;;4383334;32;20511;-63
2022/12/08 08:11:23;;;;;;;0.47;0.47;;;2.80;99.90;;;;;;4377537;32;20105;-61
2022/12/08 08:13:50;;;;;;;0.57;0.57;;;2.90;99.90;;;;;;4365081;32;20154;-64
2022/12/08 08:16:16;;;;;;;4.72;0.77;;;2.90;99.90;;;;;;4389068;32;20108;-64
2022/12/08 08:18:42;;;;;;;0.68;0.68;;;2.90;99.90;;;;;;4387836;32;21108;-63
2022/12/08 08:21:08;;;;;;;1.73;1.62;;;2.90;99.90;;;;;;4365925;32;20101;-61
2022/12/08 08:23:33;;;;;;;0.40;0.40;;;2.90;99.90;;;;;;4367500;32;20357;-64
2022/12/08 08:26:01;;;;;;;0.60;0.60;;;2.90;99.90;;;;;;4378547;32;20089;-63
2022/12/08 08:28:28;;;;;;;7.97;2.25;;;2.90;99.90;;;;;;4384662;32;20092;-64
2022/12/08 08:30:54;;;;;;;0.60;0.60;;;2.90;99.90;;;;;;4358519;32;20393;-62
2022/12/08 08:33:20;;;;;;;0.60;0.60;;;3.00;99.90;;;;;;4337135;32;20387;-60
2022/12/08 08:35:45;;;;;;;1.98;1.70;;;2.90;99.90;;;;;;4345121;32;20476;-64
2022/12/08 08:38:11;;;;;;;0.40;0.40;;;2.90;99.90;;;;;;4370602;32;21499;-62
2022/12/08 08:40:36;;;;;;;1.85;0.90;;;3.00;99.90;;;;;;4369652;32;20942;-63
2022/12/08 08:43:05;;;;;;;0.40;0.40;;;3.10;99.90;;;;;;4390372;32;20625;-63
2022/12/08 08:45:31;;;;;;;0.50;0.50;;;3.10;99.90;;;;;;4399596;32;20789;-62
2022/12/08 08:47:57;;;;;;;0.40;0.40;;;3.10;99.90;;;;;;4378809;32;20204;-62
2022/12/08 08:50:23;;;;;;;0.62;0.62;;;3.10;99.90;;;;;;4356154;32;20118;-62
2022/12/08 08:52:49;;;;;;;0.40;0.40;;;3.10;99.90;;;;;;4354897;32;20089;-62
2022/12/08 08:55:14;;;;;;;0.50;0.50;;;3.10;99.90;;;;;;4373866;32;20109;-63
2022/12/08 08:57:40;;;;;;;0.35;0.35;;;3.10;99.90;;;;;;4376258;32;20823;-62
2022/12/08 09:00:08;;;;;;;1.10;1.00;;;3.10;99.90;;;;;;4357790;32;20269;-61
2022/12/08 09:02:35;;;;;;;0.50;0.50;;;3.10;99.90;;;;;;4355197;32;20490;-61
2022/12/08 09:05:00;;;;;;;0.75;0.75;;;3.20;99.90;;;;;;4348614;32;20121;-62
2022/12/08 09:07:25;;;;;;;0.47;0.47;;;3.20;99.90;;;;;;4368879;32;20097;-64
2022/12/08 09:09:51;;;;;;;1.08;0.85;;;3.20;99.90;;;;;;4373680;32;20086;-63
2022/12/08 09:12:16;;;;;;;1.40;1.08;;;3.30;99.90;;;;;;4361018;32;20857;-63
2022/12/08 09:14:42;;;;;;;0.30;0.30;;;3.40;99.90;;;;;;4375700;32;20077;-63
2022/12/08 09:17:08;;;;;;;1.10;1.10;;;3.30;99.90;;;;;;4384357;32;20109;-61
2022/12/08 09:19:33;;;;;;;0.37;0.37;;;3.40;99.90;;;;;;4366743;32;20203;-62
2022/12/08 09:21:59;;;;;;;0.98;0.95;;;3.40;99.90;;;;;;4376365;32;20342;-62
2022/12/08 09:24:24;;;;;;;1.35;1.25;;;3.50;99.90;;;;;;4388579;32;20092;-63
2022/12/08 09:26:50;;;;;;;1.67;1.58;;;3.50;99.90;;;;;;4393333;32;20077;-63
2022/12/08 09:29:16;;;;;;;0.30;0.30;;;3.50;99.90;;;;;;4376325;32;20121;-63
2022/12/08 09:31:42;;;;;;;1.30;1.08;;;3.50;99.90;;;;;;4366152;32;20930;-61
2022/12/08 09:34:09;;;;;;;0.60;0.60;;;3.50;99.90;;;;;;4348593;32;20396;-62
2022/12/08 09:36:35;;;;;;;2.83;1.27;;;3.40;99.90;;;;;;4361594;32;20117;-62
2022/12/08 09:39:00;;;;;;;3.30;1.27;;;3.50;99.90;;;;;;4385813;32;20694;-63
2022/12/08 09:41:35;;;;;;;0.45;0.45;;;3.60;99.90;;;;;;4387824;32;20104;-63
2022/12/08 09:44:25;;;;;;;0.52;0.52;;;3.70;99.90;;;;;;4389238;32;20372;-62
2022/12/08 09:46:52;;;;;;;4.55;1.42;;;3.70;99.90;;;;;;4373336;32;20171;-64
2022/12/08 09:49:22;;;;;;;0.40;0.40;;;3.60;99.90;;;;;;4367708;32;20105;-62
2022/12/08 09:51:48;;;;;;;0.70;0.70;;;3.60;99.90;;;;;;4380274;32;20807;-62
2022/12/08 09:54:29;;;;;;;0.90;0.90;;;3.70;99.90;;;;;;4380405;32;20790;-63
2022/12/08 09:56:59;;;;;;;6.15;1.90;;;3.70;99.90;;;;;;4395970;32;20090;-62
2022/12/08 09:59:30;;;;;;;2.53;1.00;;;3.80;99.90;;;;;;4375191;32;20248;-60
2022/12/08 10:01:55;;;;;;;2.30;1.10;;;3.80;99.90;;;;;;4351464;32;20131;-63
2022/12/08 10:04:27;;;;;;;0.60;0.60;;;3.90;99.90;;;;;;4330696;32;21701;-63
2022/12/08 10:07:13;;;;;;;0.98;0.98;;;3.90;99.90;;;;;;4350487;32;20168;-63
2022/12/08 10:10:04;;;;;;;0.50;0.50;;;3.90;99.90;;;;;;4341877;32;20321;-62
2022/12/08 10:12:51;;;;;;;0.60;0.60;;;4.00;99.90;;;;;;4359663;32;20346;-62
2022/12/08 10:15:26;;;;;;;1.35;1.25;;;4.00;99.90;;;;;;4369890;32;20234;-63
2022/12/08 10:17:54;;;;;;;2.62;0.70;;;4.00;99.90;;;;;;4371130;32;20680;-63
2022/12/08 10:20:22;;;;;;;0.65;0.65;;;3.90;99.90;;;;;;4360788;32;20207;-63
2022/12/08 10:22:56;;;;;;;1.33;1.00;;;3.90;99.90;;;;;;4325361;32;20171;-62
2022/12/08 10:25:30;;;;;;;0.82;0.55;;;4.00;99.90;;;;;;4361687;32;20101;-63
2022/12/08 10:27:57;;;;;;;0.70;0.70;;;3.90;99.90;;;;;;4380037;32;22366;-62
2022/12/08 10:30:23;;;;;;;8.60;1.80;;;3.90;99.90;;;;;;4358182;32;21175;-61
2022/12/08 10:32:50;;;;;;;0.50;0.50;;;3.80;99.90;;;;;;4334716;32;20245;-62
2022/12/08 10:35:18;;;;;;;0.37;0.37;;;3.80;99.90;;;;;;4344434;32;20707;-63
2022/12/08 10:38:01;;;;;;;0.45;0.45;;;3.80;99.90;;;;;;4360887;32;20113;-64
2022/12/08 10:40:33;;;;;;;1.10;0.82;;;3.90;99.90;;;;;;4359896;32;20092;-63
2022/12/08 10:42:59;;;;;;;0.50;0.50;;;4.00;99.90;;;;;;4380238;32;20132;-62
2022/12/08 10:45:29;;;;;;;0.50;0.50;;;4.00;99.90;;;;;;4383339;32;20738;-63
2022/12/08 10:48:02;;;;;;;0.32;0.32;;;4.00;99.90;;;;;;4359453;32;20709;-63
2022/12/08 10:50:31;;;;;;;0.50;0.50;;;4.00;99.90;;;;;;4369972;32;20118;-63
2022/12/08 10:53:00;;;;;;;5.78;1.25;;;4.00;99.90;;;;;;4356126;32;20123;-62
2022/12/08 10:55:26;;;;;;;0.50;0.50;;;4.00;99.90;;;;;;4374528;32;20074;-64
2022/12/08 10:57:52;;;;;;;0.65;0.65;;;3.90;99.90;;;;;;4368618;32;20093;-62
2022/12/08 11:00:22;;;;;;;1.45;1.02;;;3.90;99.90;;;;;;4345252;32;21637;-63
2022/12/08 11:02:52;;;;;;;0.75;0.75;;;3.90;99.90;;;;;;4351738;32;20235;-62
2022/12/08 11:05:20;;;;;;;0.52;0.52;;;3.90;99.90;;;;;;4363873;32;20097;-63
2022/12/08 11:07:50;;;;;;;0.70;0.70;;;3.90;99.90;;;;;;4375511;32;20322;-63
2022/12/08 11:10:18;;;;;;;0.70;0.70;;;3.90;99.90;;;;;;4377371;32;20089;-61
2022/12/08 11:12:44;;;;;;;0.60;0.60;;;3.90;99.90;;;;;;4375525;32;20670;-62
2022/12/08 11:15:15;;;;;;;2.72;0.73;;;3.90;99.90;;;;;;4374371;32;20077;-64
2022/12/08 11:17:42;;;;;;;;;;;4.00;99.90;;;;;;4357080;32;20144;-61
2022/12/08 11:20:10;;;;;;;0.40;0.40;;;3.90;99.90;;;;;;4327445;32;20427;-63
2022/12/08 11:22:39;;;;;;;21.75;2.28;;;4.00;99.90;;;;;;4342767;32;21096;-60
2022/12/08 11:25:10;;;;;;;11.50;1.77;;;3.90;99.90;;;;;;4348097;32;20849;-61
2022/12/08 11:27:39;;;;;;;4.28;0.70;;;3.90;99.90;;;;;;4364143;32;20165;-61
2022/12/08 11:30:14;;;;;;;0.73;0.73;;;3.90;99.90;;;;;;4362405;32;20146;-62
2022/12/08 11:32:43;;;;;;;0.50;0.50;;;3.90;99.90;;;;;;4340924;32;20272;-61
2022/12/08 11:35:17;;;;;;;0.60;0.60;;;3.90;99.90;;;;;;4350636;32;20505;-60
2022/12/08 11:37:44;;;;;;;1.12;1.02;;;3.90;99.90;;;;;;4383877;32;20177;-62
2022/12/08 11:40:19;;;;;;;2.25;0.70;;;3.90;99.90;;;;;;4384216;32;20371;-64
2022/12/08 11:43:13;;;;;;;0.32;0.32;;;3.90;99.90;;;;;;4381580;32;20619;-63
2022/12/08 11:45:40;;;;;;;0.57;0.57;;;3.90;99.90;;;;;;4368213;32;20698;-65
2022/12/08 11:48:30;;;;;;;0.98;0.90;;;4.00;99.90;;;;;;4377455;32;20235;-63
2022/12/08 11:51:11;;;;;;;0.60;0.60;;;3.90;99.90;;;;;;4346403;32;20323;-62
2022/12/08 11:53:40;;;;;;;0.77;0.77;;;4.00;99.90;;;;;;4346309;32;21658;-62
2022/12/08 11:56:16;;;;;;;0.83;0.83;;;4.00;99.90;;;;;;4365541;32;20325;-60
2022/12/08 11:58:50;;;;;;;0.62;0.62;;;4.00;99.90;;;;;;4364567;32;20109;-62
2022/12/08 12:01:20;;;;;;;0.60;0.60;;;4.00;99.90;;;;;;4363813;32;20221;-62
2022/12/08 12:03:57;;;;;;;0.37;0.37;;;3.90;99.90;;;;;;4364009;32;20198;-60
2022/12/08 12:06:46;;;;;;;0.55;0.55;;;3.80;99.90;;;;;;4376469;32;20463;-66
2022/12/08 12:09:29;;;;;;;0.43;0.43;;;3.80;99.90;;;;;;4384653;32;20122;-61
2022/12/08 12:12:16;;;;;;;0.50;0.50;;;3.80;99.90;;;;;;4375140;32;21189;-63
2022/12/08 12:15:11;;;;;;;0.50;0.50;;;3.80;99.90;;;;;;4355664;32;20160;-61
2022/12/08 12:18:14;;;;;;;0.40;0.40;;;3.90;99.90;;;;;;4368109;32;20609;-63
2022/12/08 12:21:06;;;;;;;0.40;0.40;;;3.90;99.90;;;;;;4375471;32;20093;-64
2022/12/08 12:23:39;;;;;;;1.37;1.27;;;3.90;99.90;;;;;;4371689;32;20361;-63
2022/12/08 12:26:08;;;;;;;0.50;0.50;;;3.90;99.90;;;;;;4381521;32;20088;-62
2022/12/08 12:28:51;;;;;;;0.43;0.43;;;3.80;99.90;;;;;;4380690;32;20994;-61
2022/12/08 12:31:21;;;;;;;1.08;0.68;;;3.80;99.90;;;;;;4382211;32;20089;-62
2022/12/08 12:33:48;;;;;;;0.60;0.60;;;3.80;99.90;;;;;;4372233;32;20632;-61
2022/12/08 12:36:14;;;;;;;2.70;0.93;;;3.70;99.90;;;;;;4359025;32;20167;-63
2022/12/08 12:39:09;;;;;;;0.60;0.60;;;3.60;99.90;;;;;;4394456;32;20525;-63
2022/12/08 12:41:44;;;;;;;0.60;0.60;;;3.60;99.90;;;;;;4355024;32;20069;-61
2022/12/08 12:44:15;;;;;;;0.40;0.40;;;3.70;99.90;;;;;;4362037;32;21805;-63
2022/12/08 12:46:53;;;;;;;2.97;1.45;;;3.70;99.90;;;;;;4369495;32;20123;-66
2022/12/08 12:49:42;;;;;;;1.30;1.17;;;3.70;99.90;;;;;;4378589;32;20086;-62
2022/12/08 12:52:18;;;;;;;0.62;0.62;;;3.80;99.90;;;;;;4350900;32;20348;-61
2022/12/08 12:55:12;;;;;;;0.37;0.37;;;3.80;99.90;;;;;;4376950;32;20085;-61
2022/12/08 12:57:49;;;;;;;0.98;0.98;;;3.80;99.90;;;;;;4372226;32;20101;-60
2022/12/08 13:00:18;;;;;;;3.00;1.05;;;3.80;99.90;;;;;;4361547;32;20193;-62
2022/12/08 13:02:47;;;;;;;0.57;0.50;;;3.80;99.90;;;;;;4374622;32;20336;-62
2022/12/08 13:05:24;;;;;;;0.50;0.50;;;3.90;99.90;;;;;;4374762;32;20241;-63
2022/12/08 13:08:26;;;;;;;1.67;1.02;;;3.90;99.90;;;;;;4386824;32;20130;-63
2022/12/08 13:11:09;;;;;;;0.45;0.45;;;3.80;99.90;;;;;;4377057;32;20421;-63